Nearby METAR Reports

 

KBED - Bedford, Massachusetts, USA
Distance from station: W 5mi, 9km
Updated: Thu, 19-Oct-2017 6:56pm EDT
Clear
Clear
 Wind from SSW
Wind: SSW 10 mph , 17 km/h
Temperature: 63°F , 17°C
Dew Point: 41°F , 5°C
Humidity: 45%
Barometer: 1015.6 hPa
Clouds: Clear
Visibility: 10 miles , 16 km
2017/10/19 22:56 KBED 192256Z 21009KT 10SM CLR 17/05 A2999 RMK AO2 SLP168 T01720050
KBOS - Boston, Massachusetts, USA
Distance from station: SE 11mi, 18km
Updated: Thu, 19-Oct-2017 6:54pm EDT
Mostly cloudy
Mostly cloudy
 Wind from SSW
Wind: SSW 13 mph , 20 km/h
Temperature: 63°F , 17°C
Dew Point: 50°F , 10°C
Humidity: 64%
Barometer: 1015.9 hPa
Clouds: Mostly cloudy
Visibility: 10 miles , 16 km
Cloud details: Partly cloudy 13000 ft
Mostly cloudy 25000 ft
2017/10/19 22:54 KBOS 192254Z 20011KT 10SM SCT130 BKN250 17/10 A3000 RMK AO2 SLP158 T01720100
 
KBVY - Beverly, Massachusetts, USA
Distance from station: ENE 17mi, 27km
Updated: Thu, 19-Oct-2017 6:53pm EDT
Clear
Clear
 Wind from SSW
Wind: SSW 12 mph , 19 km/h
Temperature: 66°F , 19°C
Dew Point: 45°F , 7°C
Humidity: 46%
Barometer: 1014.9 hPa
Clouds: Clear
Visibility: 10 miles , 16 km
2017/10/19 22:53 KBVY 192253Z 21010KT 10SM CLR 19/07 A2997 RMK AO2 SLP144 T01890067
KMQE - East Milton, Massachusetts, USA
Distance from station: SSE 17mi, 28km
Updated: Thu, 19-Oct-2017 6:56pm EDT

 Wind from S
Wind: S 17 mph , 28 km/h, Gust: 26 mph , 43 km/h
Temperature: 61°F , 16°C
Dew Point: 48°F , 9°C
Humidity: 63%
Barometer: 1016.3 hPa
2017/10/19 22:56 KMQE 192256Z AUTO 19015G23KT 16/09 A3001 RMK AO1 SLP172 T01560089
 
KLWM - Lawrence, Massachusetts, USA
Distance from station: N 18mi, 29km
Updated: Thu, 19-Oct-2017 6:54pm EDT
Clear
Clear
 Wind from SSW
Wind: SSW 8 mph , 13 km/h
Temperature: 66°F , 19°C
Dew Point: 45°F , 7°C
Humidity: 46%
Barometer: 1015.9 hPa
Clouds: Clear
Visibility: 10 miles , 16 km
2017/10/19 22:54 KLWM 192254Z 21007KT 10SM CLR 19/07 A3000 RMK AO2 SLP157 T01940072
KOWD - Norwood, Massachusetts, USA
Distance from station: S 19mi, 31km
Updated: Thu, 19-Oct-2017 6:53pm EDT
Clear
Clear
 Wind from S
Wind: S 10 mph , 17 km/h
Temperature: 64°F , 18°C
Dew Point: 46°F , 8°C
Humidity: 52%
Barometer: 1016.3 hPa
Clouds: Clear
Visibility: 10 miles , 16 km
2017/10/19 22:53 KOWD 192253Z 18009KT 10SM CLR 18/08 A3001 RMK AO2 SLP163 T01780083
 
KASH - Nashua/Boire Fld, New Hampshire, USA
Distance from station: NW 28mi, 45km
Updated: Thu, 19-Oct-2017 6:56pm EDT
Clear
Clear
 Wind from varies
Wind: varies 5 mph , 7 km/h
Temperature: 64°F , 18°C
Dew Point: 43°F , 6°C
Humidity: 46%
Barometer: 1015.2 hPa
Clouds: Clear
Visibility: 10 miles , 16 km
2017/10/19 22:56 KASH 192256Z VRB04KT 10SM CLR 18/06 A2998 RMK AO2 SLP163 T01830056
KFIT - Fitchburg, Massachusetts, USA
Distance from station: WNW 29mi, 47km
Updated: Thu, 19-Oct-2017 6:52pm EDT
Clear
Clear
 Wind from S
Wind: S 3 mph , 6 km/h
Temperature: 66°F , 19°C
Dew Point: 43°F , 6°C
Humidity: 43%
Barometer: 1015.9 hPa
Clouds: Clear
Visibility: 10 miles , 16 km
2017/10/19 22:52 KFIT 192252Z AUTO 17003KT 10SM CLR 19/06 A3000 RMK AO2 SLP159 T01890061
 
KMHT - Manchester, New Hampshire, USA
Distance from station: NNW 35mi, 56km
Updated: Thu, 19-Oct-2017 6:53pm EDT
Mostly cloudy
Mostly cloudy
 Wind from S
Wind: S 10 mph , 17 km/h
Temperature: 66°F , 19°C
Dew Point: 43°F , 6°C
Humidity: 43%
Barometer: 1014.6 hPa
Clouds: Mostly cloudy
Visibility: 10 miles , 16 km
Cloud details: Mostly cloudy 25000 ft
2017/10/19 22:53 KMHT 192253Z 19009KT 10SM BKN250 19/06 A2996 RMK AO2 SLP157 T01890056
KGHG - Marshfield, Massachusetts, USA
Distance from station: SE 37mi, 59km
Updated: Thu, 19-Oct-2017 7:35pm EDT
Clear
Clear
 Wind from SSW
Wind: SSW 13 mph , 20 km/h, Gust: 18 mph , 30 km/h
Temperature: 61°F , 16°C
Dew Point: 55°F , 13°C
Humidity: 83%
Barometer: 1016.3 hPa
Clouds: Clear
Visibility: 10 miles , 16 km
2017/10/19 23:35 KGHG 192335Z AUTO 21011G16KT 10SM CLR 16/13 A3001 RMK AO2
 
KORH - Worcester, Massachusetts, USA
Distance from station: WSW 37mi, 59km
Updated: Thu, 19-Oct-2017 6:54pm EDT
Clear
Clear
 Wind from SSW
Wind: SSW 16 mph , 26 km/h
Temperature: 59°F , 15°C
Dew Point: 39°F , 4°C
Humidity: 48%
Barometer: 1016.6 hPa
Clouds: Clear
Visibility: 10 miles , 16 km
2017/10/19 22:54 KORH 192254Z 21014KT 10SM CLR 15/04 A3002 RMK AO2 SLP169 T01500044
KSFZ - Pawtucket, Rhode Island, USA
Distance from station: SSW 41mi, 65km
Updated: Thu, 19-Oct-2017 6:56pm EDT
Clear
Clear
 Wind from SW
Wind: SW 8 mph , 13 km/h
Temperature: 59°F , 15°C
Dew Point: 48°F , 9°C
Humidity: 68%
Barometer: 1017.6 hPa
Clouds: Clear
Visibility: 10 miles , 16 km
2017/10/19 22:56 KSFZ 192256Z AUTO 22007KT 170V280 10SM CLR 15/09 A3005 RMK AO2 SLP124 T01500094
 
KTAN - Taunton, Massachusetts, USA
Distance from station: SSE 41mi, 66km
Updated: Thu, 19-Oct-2017 6:52pm EDT
Clear
Clear
 Wind from S
Wind: S 10 mph , 17 km/h, Gust: 18 mph , 30 km/h
Temperature: 61°F , 16°C
Dew Point: 54°F , 12°C
Humidity: 77%
Barometer: 1017.6 hPa
Clouds: Clear
Visibility: 10 miles , 16 km
2017/10/19 22:52 KTAN 192252Z AUTO 18009G16KT 10SM CLR 16/12 A3005 RMK AO2 SLP176 T01610117
KPYM - Plymouth, Massachusetts, USA
Distance from station: SSE 44mi, 71km
Updated: Thu, 19-Oct-2017 6:52pm EDT
Clear
Clear
 Wind from SSW
Wind: SSW 15 mph , 24 km/h, Gust: 24 mph , 39 km/h
Temperature: 61°F , 16°C
Dew Point: 54°F , 12°C
Humidity: 77%
Barometer: 1017.6 hPa
Clouds: Clear
Visibility: 10 miles , 16 km
2017/10/19 22:52 KPYM 192252Z AUTO 21013G21KT 10SM CLR 16/12 A3005 RMK AO2 SLP176 T01610117
 
KPSM - Portsmouth/Pease, New Hampshire, USA
Distance from station: NNE 46mi, 74km
Updated: Thu, 19-Oct-2017 6:56pm EDT
Mostly cloudy
Mostly cloudy
 Wind from SSW
Wind: SSW 10 mph , 17 km/h
Temperature: 64°F , 18°C
Dew Point: 43°F , 6°C
Humidity: 46%
Barometer: 1013.9 hPa
Clouds: Mostly cloudy
Visibility: 10 miles , 16 km
Cloud details: Few Clouds 13000 ft
Partly cloudy 22000 ft
Mostly cloudy 25000 ft
2017/10/19 22:56 KPSM 192256Z 20009KT 10SM FEW130 SCT220 BKN250 18/06 A2994 RMK AO2A SLP141 T01820057 $
KAFN - Jaffrey, New Hampshire, USA
Distance from station: WNW 47mi, 76km
Updated: Thu, 19-Oct-2017 6:52pm EDT
Clear
Clear
 Wind from S
Wind: S 10 mph , 17 km/h
Temperature: 63°F , 17°C
Dew Point: 45°F , 7°C
Humidity: 52%
Barometer: 1015.9 hPa
Clouds: Clear
Visibility: 10 miles , 16 km
2017/10/19 22:52 KAFN 192252Z AUTO 19009KT 10SM CLR 17/07 A3000 RMK AO2 SLP166 T01670072